createdAt,value
2023-04-15T00:00:04.600Z,32.21
2023-04-15T00:00:35.954Z,32.04
2023-04-15T00:01:07.332Z,31.93
2023-04-15T00:01:38.821Z,32.06
2023-04-15T00:02:10.302Z,31.93
2023-04-15T00:02:41.953Z,32.03
2023-04-15T00:03:13.622Z,31.97
2023-04-15T00:03:45.462Z,31.93
2023-04-15T00:04:17.212Z,32.12
2023-04-15T00:04:48.970Z,32.09
2023-04-15T00:05:20.515Z,32.10
2023-04-15T00:05:51.925Z,32.15
2023-04-15T00:06:23.367Z,32.11
2023-04-15T00:06:54.857Z,32.03
2023-04-15T00:07:26.321Z,32.14
2023-04-15T00:07:57.718Z,32.04
2023-04-15T00:08:29.162Z,32.11
2023-04-15T00:09:00.768Z,32.01
2023-04-15T00:09:32.522Z,32.08
2023-04-15T00:10:03.983Z,32.06
2023-04-15T00:10:35.404Z,31.95
2023-04-15T00:11:06.775Z,31.83
2023-04-15T00:11:38.222Z,31.97
2023-04-15T00:12:09.603Z,31.93
2023-04-15T00:12:41.099Z,31.92
2023-04-15T00:13:12.503Z,31.81
2023-04-15T00:13:43.886Z,32.08
2023-04-15T00:14:15.305Z,32.00
2023-04-15T00:14:46.911Z,31.90
2023-04-15T00:15:18.526Z,31.82
2023-04-15T00:15:52.886Z,31.96
2023-04-15T00:16:24.397Z,31.86
2023-04-15T00:16:55.946Z,31.94
2023-04-15T00:17:27.375Z,31.77
2023-04-15T00:17:59.119Z,31.92
2023-04-15T00:18:30.563Z,31.96
2023-04-15T00:19:02.263Z,31.94
2023-04-15T00:19:33.869Z,31.98
2023-04-15T00:20:08.393Z,31.89
2023-04-15T00:20:39.836Z,32.06
2023-04-15T00:21:11.271Z,31.91
2023-04-15T00:21:42.689Z,31.98
2023-04-15T00:22:14.124Z,31.96
2023-04-15T00:22:45.541Z,31.88
2023-04-15T00:23:16.995Z,31.92
2023-04-15T00:23:48.411Z,31.98
2023-04-15T00:24:19.817Z,31.82
2023-04-15T00:24:51.237Z,31.77
2023-04-15T00:25:22.711Z,31.79
2023-04-15T00:25:54.147Z,31.92
2023-04-15T00:26:25.519Z,31.98
2023-04-15T00:26:56.929Z,31.81
2023-04-15T00:27:28.352Z,31.88
2023-04-15T00:27:59.771Z,31.91
2023-04-15T00:28:31.221Z,31.91
2023-04-15T00:29:02.654Z,31.96
2023-04-15T00:29:34.069Z,31.72
2023-04-15T00:30:05.562Z,31.81
2023-04-15T00:30:37.030Z,31.92
2023-04-15T00:31:08.608Z,31.95
2023-04-15T00:31:40.011Z,31.84
2023-04-15T00:32:11.430Z,31.68
2023-04-15T00:32:42.936Z,31.77
2023-04-15T00:33:14.389Z,31.82
2023-04-15T00:33:45.843Z,31.74
2023-04-15T00:34:17.318Z,31.79
2023-04-15T00:34:48.821Z,31.93
2023-04-15T00:35:20.497Z,31.86
2023-04-15T00:35:51.882Z,31.99
2023-04-15T00:36:23.392Z,32.12
2023-04-15T00:36:54.818Z,32.13
2023-04-15T00:37:26.352Z,31.88
2023-04-15T00:37:59.300Z,31.87
2023-04-15T00:38:30.716Z,31.86
2023-04-15T00:39:02.299Z,31.79
2023-04-15T00:39:33.800Z,31.86
2023-04-15T00:40:05.199Z,31.90
2023-04-15T00:40:36.655Z,31.80
2023-04-15T00:41:08.065Z,31.55
2023-04-15T00:41:39.491Z,31.92
2023-04-15T00:42:10.880Z,31.84
2023-04-15T00:42:42.279Z,31.68
2023-04-15T00:43:13.735Z,31.61
2023-04-15T00:43:45.164Z,31.75
2023-04-15T00:44:16.556Z,31.67
2023-04-15T00:44:47.977Z,31.69
2023-04-15T00:45:50.854Z,31.67
2023-04-15T00:46:22.243Z,31.80
2023-04-15T00:46:53.725Z,31.85
2023-04-15T00:47:25.214Z,31.79
2023-04-15T00:47:56.692Z,31.76
2023-04-15T00:48:28.207Z,31.84
2023-04-15T00:48:59.833Z,31.93
2023-04-15T00:50:05.136Z,31.73
2023-04-15T00:50:36.688Z,31.73
2023-04-15T00:51:39.476Z,31.89
2023-04-15T00:52:10.871Z,31.81
2023-04-15T00:52:42.336Z,31.81
2023-04-15T00:53:13.768Z,32.00
2023-04-15T00:53:45.242Z,31.98
2023-04-15T00:54:16.670Z,31.96
2023-04-15T00:54:48.058Z,31.84
2023-04-15T00:55:19.502Z,31.88
2023-04-15T00:55:51.019Z,31.89
2023-04-15T00:56:22.586Z,31.81
2023-04-15T00:56:54.040Z,31.92
2023-04-15T00:57:25.404Z,31.91
2023-04-15T00:57:56.808Z,31.87
2023-04-15T00:58:28.232Z,31.93
2023-04-15T00:58:59.819Z,31.80
2023-04-15T00:59:31.395Z,31.78
2023-04-15T01:00:03.589Z,31.91
2023-04-15T01:00:35.053Z,31.97
2023-04-15T01:01:38.075Z,31.87
2023-04-15T01:02:09.621Z,31.91
2023-04-15T01:02:41.262Z,31.83
2023-04-15T01:03:12.940Z,31.70
2023-04-15T01:03:44.843Z,31.77
2023-04-15T01:04:16.705Z,31.79
2023-04-15T01:04:48.125Z,31.81
2023-04-15T01:05:19.580Z,31.70
2023-04-15T01:05:50.982Z,31.82
2023-04-15T01:06:22.416Z,31.76
2023-04-15T01:06:53.775Z,31.82
2023-04-15T01:07:25.217Z,31.79
2023-04-15T01:07:56.614Z,31.85
2023-04-15T01:08:28.043Z,31.92
2023-04-15T01:08:59.794Z,31.75
2023-04-15T01:09:31.335Z,31.76
2023-04-15T01:10:02.808Z,31.89
2023-04-15T01:10:34.393Z,31.86
2023-04-15T01:11:08.388Z,31.74
2023-04-15T01:11:39.765Z,31.75
2023-04-15T01:12:11.211Z,31.75
2023-04-15T01:12:42.722Z,31.71
2023-04-15T01:13:14.152Z,31.74
2023-04-15T01:13:45.592Z,31.96
2023-04-15T01:14:48.423Z,31.90
2023-04-15T01:15:51.302Z,31.88
2023-04-15T01:16:22.786Z,31.85
2023-04-15T01:16:54.269Z,31.74
2023-04-15T01:17:25.758Z,31.74
2023-04-15T01:17:57.215Z,31.79
2023-04-15T01:18:28.688Z,31.99
2023-04-15T01:19:00.443Z,31.83
2023-04-15T01:19:31.987Z,32.01
2023-04-15T01:20:03.385Z,31.78
2023-04-15T01:20:36.831Z,31.74
2023-04-15T01:21:08.279Z,31.90
2023-04-15T01:21:39.669Z,31.75
2023-04-15T01:22:11.150Z,31.56
2023-04-15T01:22:42.548Z,31.84
2023-04-15T01:23:14.004Z,31.70
2023-04-15T01:23:45.389Z,31.77
2023-04-15T01:24:16.861Z,31.64
2023-04-15T01:24:48.294Z,31.67
2023-04-15T01:25:19.712Z,31.70
2023-04-15T01:25:51.225Z,31.67
2023-04-15T01:26:22.684Z,31.73
2023-04-15T01:26:54.158Z,31.65
2023-04-15T01:27:25.554Z,31.74
2023-04-15T01:27:56.981Z,31.81
2023-04-15T01:28:28.364Z,31.76
2023-04-15T01:28:59.909Z,31.70
2023-04-15T01:29:31.528Z,31.72
2023-04-15T01:30:05.739Z,31.82
2023-04-15T01:30:37.153Z,31.81
2023-04-15T01:31:08.662Z,31.74
2023-04-15T01:31:40.210Z,31.69
2023-04-15T01:32:11.616Z,31.78
2023-04-15T01:33:14.494Z,31.71
2023-04-15T01:33:45.883Z,31.71
2023-04-15T01:34:17.277Z,31.80
2023-04-15T01:34:48.699Z,31.60
2023-04-15T01:35:51.517Z,31.64
2023-04-15T01:36:22.932Z,31.67
2023-04-15T01:36:54.401Z,31.85
2023-04-15T01:37:25.844Z,31.83
2023-04-15T01:37:57.254Z,31.90
2023-04-15T01:38:28.647Z,31.93
2023-04-15T01:39:00.210Z,31.81
2023-04-15T01:39:31.793Z,31.74
2023-04-15T01:40:03.339Z,31.54
2023-04-15T01:40:34.721Z,31.70
2023-04-15T01:41:06.094Z,31.80
2023-04-15T01:41:37.511Z,31.74
2023-04-15T01:42:09.001Z,31.65
2023-04-15T01:42:40.387Z,31.76
2023-04-15T01:43:11.777Z,31.81
2023-04-15T01:43:43.220Z,31.89
2023-04-15T01:44:14.648Z,31.83
2023-04-15T01:44:46.058Z,31.74
2023-04-15T01:45:17.532Z,31.78
2023-04-15T01:45:48.931Z,31.75
2023-04-15T01:46:20.338Z,31.83
2023-04-15T01:46:51.741Z,31.91
2023-04-15T01:47:23.256Z,31.76
2023-04-15T01:47:54.726Z,31.58
2023-04-15T01:48:26.131Z,31.90
2023-04-15T01:48:57.626Z,31.65
2023-04-15T01:49:29.045Z,31.98
2023-04-15T01:50:00.491Z,31.81
2023-04-15T01:50:31.886Z,31.79
2023-04-15T01:51:03.427Z,31.51
2023-04-15T01:51:34.903Z,31.80
2023-04-15T01:52:06.284Z,31.82
2023-04-15T01:52:37.776Z,31.55
2023-04-15T01:53:09.168Z,31.83
2023-04-15T01:53:40.606Z,31.82
2023-04-15T01:54:12.007Z,31.74
2023-04-15T01:54:43.411Z,31.67
2023-04-15T01:55:14.879Z,31.76
2023-04-15T01:55:46.296Z,31.68
2023-04-15T01:56:17.722Z,31.82
2023-04-15T01:56:49.153Z,31.80
2023-04-15T01:57:20.590Z,31.62
2023-04-15T01:57:52.141Z,31.71
2023-04-15T01:58:23.567Z,31.78
2023-04-15T01:58:55.139Z,31.69
2023-04-15T01:59:26.594Z,31.69
2023-04-15T01:59:58.130Z,31.78
2023-04-15T02:00:29.553Z,31.85
2023-04-15T02:01:32.527Z,31.66
2023-04-15T02:02:04.345Z,31.73
2023-04-15T02:02:35.993Z,31.63
2023-04-15T02:03:08.488Z,31.55
2023-04-15T02:03:40.035Z,31.80
2023-04-15T02:04:11.718Z,31.75
2023-04-15T02:04:43.127Z,31.74
2023-04-15T02:05:45.939Z,31.86
2023-04-15T02:06:17.464Z,31.73
2023-04-15T02:06:48.937Z,31.87
2023-04-15T02:07:20.479Z,31.77
2023-04-15T02:07:51.910Z,31.69
2023-04-15T02:08:23.438Z,31.59
2023-04-15T02:08:54.864Z,31.65
2023-04-15T02:09:26.309Z,31.59
2023-04-15T02:09:57.739Z,31.60
2023-04-15T02:10:29.190Z,31.62
2023-04-15T02:11:00.543Z,31.59
2023-04-15T02:11:32.034Z,31.49
2023-04-15T02:12:03.454Z,31.58
2023-04-15T02:12:34.900Z,31.51
2023-04-15T02:13:06.365Z,31.40
2023-04-15T02:13:37.843Z,31.61
2023-04-15T02:14:09.257Z,31.60
2023-04-15T02:14:40.719Z,31.51
2023-04-15T02:15:12.145Z,31.61
2023-04-15T02:15:43.545Z,31.39
2023-04-15T02:16:15.010Z,31.52
2023-04-15T02:16:46.469Z,31.51
2023-04-15T02:17:18.004Z,31.53
2023-04-15T02:17:49.434Z,31.42
2023-04-15T02:18:20.937Z,31.58
2023-04-15T02:18:52.400Z,31.38
2023-04-15T02:19:23.778Z,31.46
2023-04-15T02:19:55.196Z,31.49
2023-04-15T02:20:26.588Z,31.59
2023-04-15T02:21:29.452Z,31.52
2023-04-15T02:22:00.805Z,31.39
2023-04-15T02:22:32.239Z,31.47
2023-04-15T02:23:03.630Z,31.48
2023-04-15T02:23:35.003Z,31.53
2023-04-15T02:24:06.539Z,31.57
2023-04-15T02:24:37.927Z,31.52
2023-04-15T02:25:09.377Z,31.45
2023-04-15T02:25:40.788Z,31.46
2023-04-15T02:26:12.228Z,31.42
2023-04-15T02:26:43.654Z,31.58
2023-04-15T02:27:15.012Z,31.37
2023-04-15T02:27:46.422Z,31.38
2023-04-15T02:28:49.166Z,31.55
2023-04-15T02:29:20.668Z,31.55
2023-04-15T02:29:52.080Z,31.56
2023-04-15T02:30:23.508Z,31.51
2023-04-15T02:30:57.650Z,31.33
2023-04-15T02:31:29.135Z,31.39
2023-04-15T02:32:32.049Z,31.39
2023-04-15T02:33:34.865Z,31.42
2023-04-15T02:34:06.218Z,31.58
2023-04-15T02:34:37.678Z,31.53
2023-04-15T02:35:09.146Z,31.53
2023-04-15T02:35:40.575Z,31.57
2023-04-15T02:36:11.999Z,31.54
2023-04-15T02:36:43.360Z,31.62
2023-04-15T02:37:14.726Z,31.60
2023-04-15T02:37:46.197Z,31.55
2023-04-15T02:38:17.608Z,31.51
2023-04-15T02:38:49.061Z,31.36
2023-04-15T02:39:20.462Z,31.50
2023-04-15T02:39:51.926Z,31.52
2023-04-15T02:40:23.485Z,31.52
2023-04-15T02:40:54.937Z,31.46
2023-04-15T02:41:26.356Z,31.44
2023-04-15T02:41:57.807Z,31.52
2023-04-15T02:42:29.183Z,31.45
2023-04-15T02:43:00.575Z,31.41
2023-04-15T02:43:31.941Z,31.34
2023-04-15T02:44:03.439Z,31.46
2023-04-15T02:44:34.810Z,31.51
2023-04-15T02:45:06.248Z,31.43
2023-04-15T02:45:37.726Z,31.37
2023-04-15T02:46:09.206Z,31.32
2023-04-15T02:46:40.639Z,31.66
2023-04-15T02:47:12.039Z,31.45
2023-04-15T02:47:43.530Z,31.50
2023-04-15T02:48:14.941Z,31.44
2023-04-15T02:48:46.339Z,31.51
2023-04-15T02:49:49.126Z,31.31
2023-04-15T02:50:20.551Z,31.44
2023-04-15T02:50:52.040Z,31.36
2023-04-15T02:51:23.581Z,31.43
2023-04-15T02:51:54.953Z,31.53
2023-04-15T02:52:26.339Z,31.65
2023-04-15T02:52:57.758Z,31.51
2023-04-15T02:53:29.184Z,31.56
2023-04-15T02:54:00.606Z,31.46
2023-04-15T02:54:32.051Z,31.64
2023-04-15T02:55:03.540Z,31.47
2023-04-15T02:55:34.986Z,31.51
2023-04-15T02:56:06.586Z,31.43
2023-04-15T02:56:38.118Z,31.61
2023-04-15T02:57:09.591Z,31.51
2023-04-15T02:57:41.091Z,31.30
2023-04-15T02:58:12.618Z,31.46
2023-04-15T02:58:44.048Z,31.60
2023-04-15T02:59:15.450Z,31.61
2023-04-15T02:59:46.866Z,31.49
2023-04-15T03:00:18.276Z,31.53
2023-04-15T03:00:49.675Z,31.51
2023-04-15T03:01:21.079Z,31.50
2023-04-15T03:01:52.698Z,31.59
2023-04-15T03:02:24.463Z,31.34
2023-04-15T03:02:56.234Z,31.46
2023-04-15T03:03:27.869Z,31.48
2023-04-15T03:03:59.432Z,31.39
2023-04-15T03:04:30.934Z,31.58
2023-04-15T03:05:02.344Z,31.45
2023-04-15T03:05:33.758Z,31.66
2023-04-15T03:06:05.213Z,31.40
2023-04-15T03:06:36.605Z,31.45
2023-04-15T03:07:08.095Z,31.46
2023-04-15T03:07:39.487Z,31.34
2023-04-15T03:08:10.877Z,31.51
2023-04-15T03:08:42.330Z,31.33
2023-04-15T03:09:13.785Z,31.49
2023-04-15T03:09:45.227Z,31.35
2023-04-15T03:10:16.660Z,31.43
2023-04-15T03:10:48.117Z,31.39
2023-04-15T03:11:19.538Z,31.33
2023-04-15T03:11:50.990Z,31.48
2023-04-15T03:12:22.438Z,31.43
2023-04-15T03:12:53.896Z,31.44
2023-04-15T03:13:25.331Z,31.39
2023-04-15T03:13:56.709Z,31.45
2023-04-15T03:14:28.116Z,31.35
2023-04-15T03:14:59.513Z,31.27
2023-04-15T03:15:30.924Z,31.34
2023-04-15T03:16:02.485Z,31.34
2023-04-15T03:16:33.905Z,31.33
2023-04-15T03:17:05.377Z,31.38
2023-04-15T03:17:36.906Z,31.43
2023-04-15T03:18:08.464Z,31.45
2023-04-15T03:18:39.882Z,31.29
2023-04-15T03:19:11.300Z,31.48
2023-04-15T03:19:42.728Z,31.38
2023-04-15T03:20:14.245Z,31.37
2023-04-15T03:20:45.723Z,31.40
2023-04-15T03:21:17.166Z,31.28
2023-04-15T03:21:48.655Z,31.38
2023-04-15T03:22:20.088Z,31.22
2023-04-15T03:22:51.583Z,31.43
2023-04-15T03:23:23.010Z,31.44
2023-04-15T03:23:54.534Z,31.41
2023-04-15T03:24:25.946Z,31.34
2023-04-15T03:24:57.307Z,31.32
2023-04-15T03:25:28.749Z,31.41
2023-04-15T03:26:00.144Z,31.18
2023-04-15T03:26:31.571Z,31.29
2023-04-15T03:27:02.985Z,31.34
2023-04-15T03:28:05.879Z,31.18
2023-04-15T03:28:37.268Z,31.30
2023-04-15T03:29:08.740Z,31.32
2023-04-15T03:29:40.109Z,31.15
2023-04-15T03:30:11.510Z,31.26
2023-04-15T03:30:42.943Z,31.30
2023-04-15T03:31:14.371Z,31.23
2023-04-15T03:31:45.721Z,31.19
2023-04-15T03:32:17.101Z,31.25
2023-04-15T03:32:48.510Z,31.28
2023-04-15T03:33:19.974Z,31.28
2023-04-15T03:33:51.346Z,31.22
2023-04-15T03:34:25.442Z,31.24
2023-04-15T03:34:56.829Z,31.12
2023-04-15T03:35:28.283Z,31.27
2023-04-15T03:35:59.696Z,31.35
2023-04-15T03:36:31.161Z,31.16
2023-04-15T03:37:02.549Z,31.27
2023-04-15T03:37:33.935Z,31.24
2023-04-15T03:38:05.308Z,31.05
2023-04-15T03:38:36.745Z,31.15
2023-04-15T03:39:08.131Z,31.26
2023-04-15T03:39:39.556Z,31.39
2023-04-15T03:40:10.946Z,31.14
2023-04-15T03:40:42.389Z,31.25
2023-04-15T03:41:13.787Z,31.25
2023-04-15T03:41:45.204Z,31.17
2023-04-15T03:42:16.628Z,31.28
2023-04-15T03:42:48.073Z,31.23
2023-04-15T03:43:19.514Z,31.29
2023-04-15T03:43:50.936Z,31.32
2023-04-15T03:44:22.340Z,31.24
2023-04-15T03:44:53.741Z,31.31
2023-04-15T03:45:25.146Z,31.21
2023-04-15T03:45:56.553Z,31.18
2023-04-15T03:46:28.111Z,31.22
2023-04-15T03:46:59.554Z,31.32
2023-04-15T03:47:30.992Z,31.18
2023-04-15T03:48:36.679Z,31.23
2023-04-15T03:49:08.077Z,31.21
2023-04-15T03:49:39.718Z,31.17
2023-04-15T03:50:11.152Z,31.29
2023-04-15T03:50:42.619Z,31.41
2023-04-15T03:51:14.045Z,31.10
2023-04-15T03:51:45.514Z,31.23
2023-04-15T03:52:16.951Z,31.27
2023-04-15T03:52:50.100Z,31.36
2023-04-15T03:53:22.472Z,31.36
2023-04-15T03:53:53.864Z,31.41
2023-04-15T03:54:25.253Z,31.33
2023-04-15T03:54:56.637Z,31.39
2023-04-15T03:55:28.057Z,31.23
2023-04-15T03:55:59.473Z,31.27
2023-04-15T03:56:30.908Z,31.34
2023-04-15T03:57:02.466Z,31.30
2023-04-15T03:57:33.937Z,31.37
2023-04-15T03:58:05.375Z,31.12
2023-04-15T03:58:36.804Z,31.24
2023-04-15T03:59:08.212Z,31.10
2023-04-15T03:59:39.599Z,31.15
2023-04-15T04:00:11.024Z,31.29
2023-04-15T04:00:42.452Z,31.34
2023-04-15T04:01:13.911Z,31.30
2023-04-15T04:01:45.392Z,31.26
2023-04-15T04:02:16.891Z,31.31
2023-04-15T04:02:48.703Z,31.38
2023-04-15T04:03:20.369Z,31.37
2023-04-15T04:03:52.107Z,31.20
2023-04-15T04:04:23.761Z,31.23
2023-04-15T04:04:55.206Z,31.31
2023-04-15T04:05:29.177Z,31.41
2023-04-15T04:06:00.643Z,31.40
2023-04-15T04:06:32.028Z,31.37
2023-04-15T04:07:34.899Z,31.29
2023-04-15T04:08:06.281Z,31.12
2023-04-15T04:09:09.072Z,31.20
2023-04-15T04:09:40.665Z,31.27
2023-04-15T04:10:12.111Z,31.43
2023-04-15T04:10:43.512Z,31.33
2023-04-15T04:11:14.988Z,31.28
2023-04-15T04:11:46.377Z,31.28
2023-04-15T04:12:17.772Z,31.28
2023-04-15T04:12:49.171Z,31.18
2023-04-15T04:13:20.546Z,31.33
2023-04-15T04:13:51.896Z,31.31
2023-04-15T04:14:23.335Z,31.33
2023-04-15T04:14:54.708Z,31.39
2023-04-15T04:15:26.134Z,31.37
2023-04-15T04:15:57.700Z,31.39
2023-04-15T04:16:29.235Z,31.22
2023-04-15T04:17:00.655Z,31.35
2023-04-15T04:17:32.088Z,31.31
2023-04-15T04:18:03.796Z,31.21
2023-04-15T04:18:35.276Z,31.32
2023-04-15T04:19:06.668Z,31.34
2023-04-15T04:19:38.054Z,31.22
2023-04-15T04:20:09.488Z,31.33
2023-04-15T04:20:41.059Z,31.16
2023-04-15T04:21:12.495Z,31.20
2023-04-15T04:21:43.928Z,31.27
2023-04-15T04:22:15.336Z,31.19
2023-04-15T04:22:46.757Z,31.02
2023-04-15T04:23:18.119Z,31.33
2023-04-15T04:23:49.517Z,31.19
2023-04-15T04:24:20.885Z,31.29
2023-04-15T04:24:52.321Z,31.26
2023-04-15T04:25:23.761Z,31.24
2023-04-15T04:25:55.167Z,31.14
2023-04-15T04:26:26.583Z,31.29
2023-04-15T04:26:58.059Z,31.20
2023-04-15T04:27:29.488Z,31.21
2023-04-15T04:28:00.923Z,31.28
2023-04-15T04:28:32.327Z,31.24
2023-04-15T04:29:03.950Z,31.30
2023-04-15T04:29:35.489Z,31.31
2023-04-15T04:30:06.913Z,31.18
2023-04-15T04:30:38.318Z,31.18
2023-04-15T04:31:09.717Z,31.44
2023-04-15T04:31:41.216Z,31.36
2023-04-15T04:32:12.770Z,31.28
2023-04-15T04:32:44.282Z,31.18
2023-04-15T04:33:15.750Z,31.20
2023-04-15T04:33:47.151Z,31.21
2023-04-15T04:34:18.546Z,31.30
2023-04-15T04:34:49.960Z,31.36
2023-04-15T04:35:21.365Z,31.29
2023-04-15T04:35:52.754Z,31.27
2023-04-15T04:36:24.158Z,31.27
2023-04-15T04:36:55.629Z,31.31
2023-04-15T04:37:27.063Z,31.27
2023-04-15T04:37:58.478Z,31.26
2023-04-15T04:38:29.931Z,31.24
2023-04-15T04:39:01.399Z,31.31
2023-04-15T04:39:32.946Z,31.25
2023-04-15T04:40:04.317Z,31.08
2023-04-15T04:40:35.691Z,31.17
2023-04-15T04:41:07.116Z,31.09
2023-04-15T04:41:38.523Z,31.13
2023-04-15T04:42:09.940Z,31.07
2023-04-15T04:42:41.330Z,31.08
2023-04-15T04:43:13.860Z,31.21
2023-04-15T04:43:45.264Z,31.03
2023-04-15T04:44:16.658Z,31.07
2023-04-15T04:44:48.066Z,30.99
2023-04-15T04:45:19.479Z,31.14
2023-04-15T04:45:50.925Z,31.21
2023-04-15T04:46:22.364Z,31.08
2023-04-15T04:46:53.842Z,31.09
2023-04-15T04:47:25.306Z,31.12
2023-04-15T04:47:56.781Z,30.94
2023-04-15T04:48:28.258Z,31.03
2023-04-15T04:48:59.740Z,31.09
2023-04-15T04:49:31.230Z,31.08
2023-04-15T04:50:02.804Z,31.04
2023-04-15T04:50:34.268Z,31.01
2023-04-15T04:51:05.677Z,31.18
2023-04-15T04:51:37.184Z,31.05
2023-04-15T04:52:08.704Z,31.26
2023-04-15T04:52:40.283Z,31.16
2023-04-15T04:53:11.695Z,31.09
2023-04-15T04:53:43.136Z,31.20
2023-04-15T04:54:14.557Z,31.08
2023-04-15T04:54:45.993Z,31.14
2023-04-15T04:55:17.394Z,31.17
2023-04-15T04:55:48.853Z,31.10
2023-04-15T04:56:20.266Z,31.08
2023-04-15T04:56:51.630Z,31.11
2023-04-15T04:57:22.986Z,31.19
2023-04-15T04:57:54.458Z,31.15
2023-04-15T04:58:25.861Z,31.21
2023-04-15T04:58:57.269Z,31.18
2023-04-15T04:59:28.657Z,31.17
2023-04-15T05:00:00.116Z,31.22
2023-04-15T05:00:31.572Z,31.11
2023-04-15T05:01:03.027Z,31.20
2023-04-15T05:01:34.604Z,31.08
2023-04-15T05:02:06.091Z,31.10
2023-04-15T05:02:37.702Z,31.15
2023-04-15T05:03:09.505Z,31.28
2023-04-15T05:03:41.087Z,31.07
2023-04-15T05:04:12.653Z,31.07
2023-04-15T05:04:44.121Z,31.22
2023-04-15T05:05:15.492Z,31.19
2023-04-15T05:05:46.934Z,31.08
2023-04-15T05:06:18.312Z,31.08
2023-04-15T05:06:49.681Z,31.11
2023-04-15T05:07:21.156Z,31.09
2023-04-15T05:07:52.549Z,31.03
2023-04-15T05:08:24.048Z,31.02
2023-04-15T05:08:55.450Z,31.17
2023-04-15T05:09:26.851Z,31.02
2023-04-15T05:09:58.217Z,31.06
2023-04-15T05:10:29.618Z,31.04
2023-04-15T05:11:01.086Z,31.06
2023-04-15T05:11:32.459Z,31.00
2023-04-15T05:12:03.896Z,30.96
2023-04-15T05:12:35.333Z,31.08
2023-04-15T05:13:06.754Z,30.95
2023-04-15T05:13:38.137Z,31.04
2023-04-15T05:14:09.552Z,30.92
2023-04-15T05:14:40.941Z,31.02
2023-04-15T05:15:12.381Z,30.93
2023-04-15T05:15:43.885Z,31.19
2023-04-15T05:16:15.381Z,31.21
2023-04-15T05:16:46.814Z,31.08
2023-04-15T05:17:18.228Z,31.13
2023-04-15T05:17:49.642Z,31.02
2023-04-15T05:18:21.064Z,31.10
2023-04-15T05:18:52.443Z,31.14
2023-04-15T05:19:23.863Z,31.09
2023-04-15T05:19:55.303Z,31.19
2023-04-15T05:20:26.727Z,31.15
2023-04-15T05:20:58.176Z,30.92
2023-04-15T05:21:29.597Z,31.06
2023-04-15T05:22:01.003Z,31.05
2023-04-15T05:22:32.408Z,31.04
2023-04-15T05:23:03.840Z,31.17
2023-04-15T05:23:35.254Z,31.10
2023-04-15T05:24:06.652Z,31.13
2023-04-15T05:24:38.065Z,31.16
2023-04-15T05:25:09.431Z,30.99
2023-04-15T05:25:40.810Z,31.04
2023-04-15T05:26:12.269Z,31.06
2023-04-15T05:26:43.679Z,30.94
2023-04-15T05:27:15.078Z,30.99
2023-04-15T05:27:46.455Z,30.89
2023-04-15T05:28:17.874Z,31.20
2023-04-15T05:28:49.331Z,31.11
2023-04-15T05:29:20.715Z,31.02
2023-04-15T05:29:52.149Z,31.19
2023-04-15T05:30:23.564Z,31.01
2023-04-15T05:30:54.982Z,30.96
2023-04-15T05:31:26.523Z,31.07
2023-04-15T05:31:57.933Z,31.11
2023-04-15T05:32:29.421Z,31.13
2023-04-15T05:33:00.879Z,31.06
2023-04-15T05:33:32.319Z,31.10
2023-04-15T05:34:03.705Z,31.05
2023-04-15T05:34:35.097Z,31.07
2023-04-15T05:35:06.507Z,30.99
2023-04-15T05:35:37.885Z,30.98
2023-04-15T05:36:09.257Z,31.10
2023-04-15T05:36:40.694Z,31.09
2023-04-15T05:37:12.081Z,30.96
2023-04-15T05:37:43.493Z,31.06
2023-04-15T05:38:15.052Z,31.02
2023-04-15T05:38:46.457Z,31.07
2023-04-15T05:39:17.907Z,31.17
2023-04-15T05:39:49.333Z,30.95
2023-04-15T05:40:20.775Z,31.10
2023-04-15T05:40:54.826Z,31.18
2023-04-15T05:41:26.263Z,31.06
2023-04-15T05:41:57.722Z,31.04
2023-04-15T05:42:29.178Z,31.06
2023-04-15T05:43:00.548Z,31.09
2023-04-15T05:43:32.001Z,31.06
2023-04-15T05:44:03.397Z,31.10
2023-04-15T05:44:34.830Z,31.12
2023-04-15T05:45:06.245Z,30.93
2023-04-15T05:45:37.710Z,31.13
2023-04-15T05:46:09.229Z,31.04
2023-04-15T05:46:40.710Z,31.17
2023-04-15T05:47:12.250Z,31.16
2023-04-15T05:47:43.658Z,31.18
2023-04-15T05:48:15.098Z,31.11
2023-04-15T05:48:46.490Z,31.15
2023-04-15T05:49:17.906Z,31.20
2023-04-15T05:49:49.337Z,31.04
2023-04-15T05:50:20.716Z,31.05
2023-04-15T05:50:52.108Z,31.02
2023-04-15T05:51:23.509Z,31.14
2023-04-15T05:51:54.895Z,31.12
2023-04-15T05:52:26.354Z,31.03
2023-04-15T05:52:57.728Z,31.05
2023-04-15T05:53:29.113Z,31.13
2023-04-15T05:54:00.539Z,31.15
2023-04-15T05:54:31.932Z,31.06
2023-04-15T05:55:03.405Z,30.92
2023-04-15T05:55:34.775Z,30.88
2023-04-15T05:56:06.198Z,31.12
2023-04-15T05:56:37.607Z,31.20
2023-04-15T05:57:09.028Z,31.07
2023-04-15T05:57:40.464Z,31.15
2023-04-15T05:58:11.868Z,31.16
2023-04-15T05:58:43.236Z,30.98
2023-04-15T05:59:14.704Z,30.84
2023-04-15T05:59:46.303Z,31.16
2023-04-15T06:00:17.846Z,31.08
2023-04-15T06:00:49.242Z,31.14
2023-04-15T06:01:20.634Z,31.02
2023-04-15T06:01:52.156Z,31.01
2023-04-15T06:02:23.701Z,31.25
2023-04-15T06:02:55.190Z,31.11
2023-04-15T06:03:26.771Z,31.25
2023-04-15T06:03:58.290Z,31.20
2023-04-15T06:04:29.866Z,31.04
2023-04-15T06:05:01.464Z,31.09
2023-04-15T06:05:33.062Z,31.13
2023-04-15T06:06:04.427Z,31.01
2023-04-15T06:06:35.799Z,31.23
2023-04-15T06:07:07.197Z,31.04
2023-04-15T06:07:38.569Z,31.10
2023-04-15T06:08:09.993Z,31.00
2023-04-15T06:08:41.405Z,31.16
2023-04-15T06:09:12.804Z,31.19
2023-04-15T06:09:44.228Z,31.18
2023-04-15T06:10:15.742Z,31.08
2023-04-15T06:10:47.155Z,30.85
2023-04-15T06:11:18.548Z,30.96
2023-04-15T06:11:49.967Z,31.09
2023-04-15T06:12:21.415Z,31.07
2023-04-15T06:12:52.908Z,31.13
2023-04-15T06:13:24.436Z,31.13
2023-04-15T06:13:55.857Z,31.24
2023-04-15T06:14:27.272Z,31.06
2023-04-15T06:15:00.092Z,30.96
2023-04-15T06:15:31.999Z,31.11
2023-04-15T06:16:03.677Z,31.06
2023-04-15T06:16:35.227Z,31.06
2023-04-15T06:17:06.807Z,31.02
2023-04-15T06:17:38.298Z,31.08
2023-04-15T06:18:09.868Z,31.04
2023-04-15T06:18:41.329Z,31.10
2023-04-15T06:19:12.846Z,31.05
2023-04-15T06:19:44.277Z,31.14
2023-04-15T06:20:15.813Z,31.11
2023-04-15T06:20:47.529Z,31.26
2023-04-15T06:21:19.043Z,31.17
2023-04-15T06:21:50.555Z,31.21
2023-04-15T06:22:22.103Z,30.99
2023-04-15T06:22:53.598Z,31.21
2023-04-15T06:23:26.324Z,31.18
2023-04-15T06:23:58.370Z,31.01
2023-04-15T06:24:29.862Z,31.10
2023-04-15T06:25:01.311Z,31.13
2023-04-15T06:25:32.736Z,30.93
2023-04-15T06:26:04.253Z,31.24
2023-04-15T06:26:35.646Z,31.25
2023-04-15T06:27:07.097Z,31.18
2023-04-15T06:27:38.520Z,31.08
2023-04-15T06:28:09.934Z,31.10
2023-04-15T06:28:41.304Z,31.15
2023-04-15T06:30:28.445Z,31.10
2023-04-15T06:30:59.989Z,31.06
2023-04-15T06:31:31.612Z,31.11
2023-04-15T06:32:03.113Z,31.15
2023-04-15T06:32:34.618Z,31.12
2023-04-15T06:33:06.115Z,31.05
2023-04-15T06:33:37.614Z,31.17
2023-04-15T06:34:09.041Z,31.14
2023-04-15T06:34:40.558Z,31.05
2023-04-15T06:35:11.991Z,31.12
2023-04-15T06:35:43.414Z,31.05
2023-04-15T06:36:14.807Z,31.18
2023-04-15T06:36:46.330Z,30.98
2023-04-15T06:37:17.746Z,31.11
2023-04-15T06:37:49.238Z,31.04
2023-04-15T06:38:20.756Z,31.21
2023-04-15T06:38:52.203Z,31.24
2023-04-15T06:39:23.646Z,31.17
2023-04-15T06:39:55.152Z,31.08
2023-04-15T06:40:58.269Z,31.18
2023-04-15T06:41:29.744Z,31.11
2023-04-15T06:42:01.177Z,30.94
2023-04-15T06:42:32.559Z,31.13
2023-04-15T06:43:04.118Z,31.19
2023-04-15T06:43:35.534Z,31.01
2023-04-15T06:44:06.968Z,31.17
2023-04-15T06:44:38.343Z,31.22
2023-04-15T06:45:09.803Z,31.12
2023-04-15T06:45:41.334Z,31.24
2023-04-15T06:46:12.825Z,31.20
2023-04-15T06:46:44.360Z,31.20
2023-04-15T06:47:15.854Z,31.11
2023-04-15T06:47:47.445Z,31.26
2023-04-15T06:48:18.901Z,31.23
2023-04-15T06:48:50.417Z,31.21
2023-04-15T06:49:21.825Z,31.09
2023-04-15T06:49:53.532Z,31.21
2023-04-15T06:50:25.032Z,31.28
2023-04-15T06:50:56.492Z,31.20
2023-04-15T06:51:27.924Z,31.24
2023-04-15T06:52:30.719Z,31.04
2023-04-15T06:53:02.118Z,31.21
2023-04-15T06:53:33.538Z,31.14
2023-04-15T06:54:04.964Z,31.21
2023-04-15T06:54:36.390Z,31.06
2023-04-15T06:55:07.897Z,31.15
2023-04-15T06:55:39.413Z,31.22
2023-04-15T06:56:10.824Z,31.08
2023-04-15T06:56:42.263Z,31.15
2023-04-15T06:57:13.710Z,31.15
2023-04-15T06:57:45.116Z,31.12